Portada
METAR-TAF:

METAR-TAF

Aeroports :

Karaganda, Kazakhstan

latitud: 49-48N, longitud: 073-09E, altitud: 553 m

Observació

L'informe es va fer fa 44 minuts, a les 08:30 UTC
Vent 17 kt del Oest/Sud-Oest
Temperatura 2°C
Humitat 51%
Pressió 1030 hPa
Visibilitat 10 km o més
sense núvols per sota de 1500 mi sense presència de cumulonimbus.

METAR: UAKK 120830Z 24009MPS CAVOK 02/M07 Q1030 R23/821060 NOSIG RMK QFE725/0967

Hora: 15:14 (09:14 UTC)

Pronòstic

L'informe es va fer fa 4 hores i 14 minuts, a les 05:00 UTC
Pronòstic vàlid del 12 a les 06 UTC al 13 a les 06 UTC
Vent 16 kt del Sud-Oest
Visibilitat 10 km o més
Núvols disperses a una alçada de 3000 ft
Cel ennuvolat a una alçada de 10000 ft
Temporalment
l' 12 a les 06 UTC al 12 a les 14 UTC
Vent 23 kt del Sud-Oest
Evolucionant progressivament
l' 12 a les 14 UTC al 12 a les 16 UTC
Vent 10 kt del Sud/Sud-Oest

TAF: UAKK 120500Z 1206/1306 22008MPS 9999 SCT030 BKN100 TXM00/1210Z TNM11/1223Z TEMPO 1206/1214 23012MPS BECMG 1214/1216 21005MPS

Observacions i pronòstics meteorològics de més de 4000 aeroports (METAR i TAF).

Les estacions disponibles són els punts grocs i vermells al mapa.

Posi el ratolí al punt desitjat per veure el nom de l'estació.

Feu clic per veure les observacions i els pronòstics meteorològics.

Per canviar el mapa: feu clic els botons verds amb una creu de color negre per apropar; al botó verd amb un guió per allunyar la imatge; o en les fletxes verdes per a mapes adjacents.


METAR-TAF: